createdAt,value
2019-04-13T00:00:11.294Z,0.00
2019-04-13T00:01:11.237Z,0.00
2019-04-13T00:02:11.201Z,0.00
2019-04-13T00:03:11.122Z,0.00
2019-04-13T00:04:11.064Z,0.00
2019-04-13T00:05:11.007Z,0.00
2019-04-13T00:06:10.949Z,0.00
2019-04-13T00:07:10.916Z,0.00
2019-04-13T00:08:10.834Z,0.00
2019-04-13T00:09:10.779Z,0.00
2019-04-13T00:10:10.722Z,0.00
2019-04-13T00:11:10.669Z,0.00
2019-04-13T00:12:10.629Z,0.00
2019-04-13T00:13:10.550Z,0.00
2019-04-13T00:14:10.492Z,0.00
2019-04-13T00:15:10.434Z,0.00
2019-04-13T00:16:10.376Z,0.00
2019-04-13T00:17:10.340Z,0.00
2019-04-13T00:18:10.265Z,0.00
2019-04-13T00:19:10.209Z,0.00
2019-04-13T00:20:10.145Z,0.00
2019-04-13T00:21:10.093Z,0.00
2019-04-13T00:22:10.055Z,0.00
2019-04-13T00:23:09.977Z,0.00
2019-04-13T00:24:09.918Z,0.00
2019-04-13T00:25:09.861Z,0.00
2019-04-13T00:26:09.801Z,0.00
2019-04-13T00:27:09.766Z,0.00
2019-04-13T00:28:09.688Z,0.00
2019-04-13T00:29:09.633Z,0.00
2019-04-13T00:30:09.575Z,0.00
2019-04-13T00:31:09.517Z,0.00
2019-04-13T00:32:09.484Z,0.00
2019-04-13T00:33:09.399Z,0.00
2019-04-13T00:34:09.344Z,0.00
2019-04-13T00:35:09.288Z,0.00
2019-04-13T00:36:09.228Z,0.00
2019-04-13T00:37:09.207Z,0.00
2019-04-13T00:38:09.115Z,0.00
2019-04-13T00:39:09.059Z,0.00
2019-04-13T00:40:08.997Z,0.00
2019-04-13T00:41:08.939Z,0.00
2019-04-13T00:42:08.910Z,0.00
2019-04-13T00:43:08.827Z,0.00
2019-04-13T00:44:08.770Z,0.00
2019-04-13T00:45:08.719Z,0.00
2019-04-13T00:46:08.656Z,0.00
2019-04-13T00:47:08.690Z,0.00
2019-04-13T00:48:08.540Z,0.00
2019-04-13T00:49:08.483Z,0.00
2019-04-13T00:50:08.426Z,0.00
2019-04-13T00:51:08.371Z,0.00
2019-04-13T00:52:08.310Z,0.00
2019-04-13T00:53:08.276Z,0.00
2019-04-13T00:54:08.195Z,0.00
2019-04-13T00:55:08.139Z,0.00
2019-04-13T00:56:08.080Z,0.00
2019-04-13T00:57:08.024Z,0.00
2019-04-13T00:58:07.986Z,0.00
2019-04-13T00:59:07.909Z,0.00
2019-04-13T01:00:07.850Z,0.00
2019-04-13T01:01:07.834Z,0.00
2019-04-13T01:02:15.640Z,0.00
2019-04-13T01:03:07.729Z,0.00
2019-04-13T01:04:07.649Z,0.00
2019-04-13T01:05:07.593Z,0.00
2019-04-13T01:06:07.534Z,0.00
2019-04-13T01:07:07.479Z,0.00
2019-04-13T01:08:07.447Z,0.00
2019-04-13T01:09:07.364Z,0.00
2019-04-13T01:10:07.305Z,0.00
2019-04-13T01:11:07.250Z,0.00
2019-04-13T01:12:07.191Z,0.00
2019-04-13T01:13:07.154Z,0.00
2019-04-13T01:14:07.079Z,0.00
2019-04-13T01:15:07.018Z,0.00
2019-04-13T01:16:06.964Z,0.00
2019-04-13T01:17:06.903Z,0.00
2019-04-13T01:18:06.870Z,0.00
2019-04-13T01:19:06.787Z,0.00
2019-04-13T01:20:06.732Z,0.00
2019-04-13T01:21:06.669Z,0.00
2019-04-13T01:22:06.612Z,0.00
2019-04-13T01:23:06.577Z,0.00
2019-04-13T01:24:06.501Z,0.00
2019-04-13T01:25:06.438Z,0.00
2019-04-13T01:26:06.379Z,0.00
2019-04-13T01:27:06.325Z,0.00
2019-04-13T01:28:06.288Z,0.00
2019-04-13T01:29:06.212Z,0.00
2019-04-13T01:30:06.150Z,0.00
2019-04-13T01:31:06.090Z,0.00
2019-04-13T01:32:06.034Z,0.00
2019-04-13T01:33:05.999Z,0.00
2019-04-13T01:34:05.920Z,0.00
2019-04-13T01:35:06.344Z,0.00
2019-04-13T01:36:05.801Z,0.00
2019-04-13T01:37:05.741Z,0.00
2019-04-13T01:38:05.710Z,0.00
2019-04-13T01:39:05.631Z,0.00
2019-04-13T01:40:05.567Z,0.00
2019-04-13T01:41:05.516Z,0.00
2019-04-13T01:42:05.457Z,0.00
2019-04-13T01:43:05.416Z,0.00
2019-04-13T01:44:05.340Z,0.00
2019-04-13T01:45:05.282Z,0.00
2019-04-13T01:46:05.225Z,0.00
2019-04-13T01:47:05.168Z,0.00
2019-04-13T01:48:05.132Z,0.00
2019-04-13T01:49:05.053Z,0.00
2019-04-13T01:50:04.997Z,0.00
2019-04-13T01:51:04.938Z,0.00
2019-04-13T01:52:12.684Z,0.00
2019-04-13T01:53:04.841Z,0.00
2019-04-13T01:54:04.761Z,0.00
2019-04-13T01:55:04.702Z,0.00
2019-04-13T01:56:04.646Z,0.00
2019-04-13T01:57:04.590Z,0.00
2019-04-13T01:58:04.555Z,0.00
2019-04-13T01:59:04.475Z,0.00
2019-04-13T02:00:04.415Z,0.00
2019-04-13T02:01:04.356Z,0.00
2019-04-13T02:02:04.304Z,0.00
2019-04-13T02:03:04.266Z,0.00
2019-04-13T02:04:04.182Z,0.00
2019-04-13T02:05:04.127Z,0.00
2019-04-13T02:06:04.067Z,0.00
2019-04-13T02:07:04.012Z,0.00
2019-04-13T02:08:03.979Z,0.00
2019-04-13T02:09:03.893Z,0.00
2019-04-13T02:10:03.841Z,0.00
2019-04-13T02:11:03.778Z,0.00
2019-04-13T02:12:03.719Z,0.00
2019-04-13T02:13:03.697Z,0.00
2019-04-13T02:14:03.611Z,0.00
2019-04-13T02:15:03.552Z,0.00
2019-04-13T02:16:03.490Z,0.00
2019-04-13T02:17:03.442Z,0.00
2019-04-13T02:18:03.374Z,0.00
2019-04-13T02:19:03.339Z,0.00
2019-04-13T02:20:03.259Z,0.00
2019-04-13T02:21:03.203Z,0.00
2019-04-13T02:22:03.143Z,0.00
2019-04-13T02:23:03.087Z,0.00
2019-04-13T02:24:03.051Z,0.00
2019-04-13T02:25:02.970Z,0.00
2019-04-13T02:26:02.915Z,0.00
2019-04-13T02:27:02.852Z,0.00
2019-04-13T02:28:02.792Z,0.00
2019-04-13T02:29:02.757Z,0.00
2019-04-13T02:30:02.688Z,0.00
2019-04-13T02:31:02.621Z,0.00
2019-04-13T02:32:02.563Z,0.00
2019-04-13T02:33:02.504Z,0.00
2019-04-13T02:34:02.471Z,0.00
2019-04-13T02:35:02.413Z,0.00
2019-04-13T02:36:02.330Z,0.00
2019-04-13T02:37:02.273Z,0.00
2019-04-13T02:38:02.216Z,0.00
2019-04-13T02:39:02.180Z,0.00
2019-04-13T02:40:02.109Z,0.00
2019-04-13T02:41:02.047Z,0.00
2019-04-13T02:42:01.985Z,0.00
2019-04-13T02:43:01.933Z,0.00
2019-04-13T02:44:01.900Z,0.00
2019-04-13T02:45:01.814Z,0.00
2019-04-13T02:46:01.753Z,0.00
2019-04-13T02:47:01.696Z,0.00
2019-04-13T02:48:01.643Z,0.00
2019-04-13T02:49:01.601Z,0.00
2019-04-13T02:50:01.593Z,0.00
2019-04-13T02:51:01.466Z,0.00
2019-04-13T02:52:01.405Z,0.00
2019-04-13T02:53:01.353Z,0.00
2019-04-13T02:54:01.317Z,0.00
2019-04-13T02:55:01.232Z,0.00
2019-04-13T02:56:01.173Z,0.00
2019-04-13T02:57:01.114Z,0.00
2019-04-13T02:58:01.062Z,0.00
2019-04-13T02:59:01.023Z,0.00
2019-04-13T03:00:00.944Z,0.00
2019-04-13T03:01:00.885Z,0.00
2019-04-13T03:02:00.827Z,0.00
2019-04-13T03:03:00.765Z,0.00
2019-04-13T03:04:00.738Z,0.00
2019-04-13T03:05:00.646Z,0.00
2019-04-13T03:06:00.595Z,0.00
2019-04-13T03:07:00.537Z,0.00
2019-04-13T03:08:00.498Z,0.00
2019-04-13T03:09:00.446Z,0.00
2019-04-13T03:10:00.367Z,0.00
2019-04-13T03:11:00.299Z,0.00
2019-04-13T03:12:00.247Z,0.00
2019-04-13T03:13:00.190Z,0.00
2019-04-13T03:14:00.153Z,0.00
2019-04-13T03:15:00.073Z,0.00
2019-04-13T03:16:00.014Z,0.00
2019-04-13T03:16:59.954Z,0.00
2019-04-13T03:17:59.895Z,0.00
2019-04-13T03:18:59.863Z,0.00
2019-04-13T03:19:59.780Z,0.00
2019-04-13T03:20:59.725Z,0.00
2019-04-13T03:21:59.665Z,0.00
2019-04-13T03:22:59.609Z,0.00
2019-04-13T03:23:59.575Z,0.00
2019-04-13T03:24:59.491Z,0.00
2019-04-13T03:25:59.436Z,0.00
2019-04-13T03:26:59.377Z,0.00
2019-04-13T03:27:59.319Z,0.00
2019-04-13T03:28:59.287Z,0.00
2019-04-13T03:29:59.201Z,0.00
2019-04-13T03:30:59.169Z,0.00
2019-04-13T03:31:59.085Z,0.00
2019-04-13T03:32:59.031Z,0.00
2019-04-13T03:33:58.968Z,0.00
2019-04-13T03:34:58.937Z,0.00
2019-04-13T03:35:59.743Z,0.00
2019-04-13T03:36:58.800Z,0.00
2019-04-13T03:37:58.735Z,0.00
2019-04-13T03:38:58.680Z,0.00
2019-04-13T03:39:58.644Z,0.00
2019-04-13T03:40:58.561Z,0.00
2019-04-13T03:41:58.509Z,0.00
2019-04-13T03:42:58.442Z,0.00
2019-04-13T03:43:58.373Z,0.00
2019-04-13T03:44:58.351Z,0.00
2019-04-13T03:45:58.271Z,0.00
2019-04-13T03:46:59.081Z,0.00
2019-04-13T03:47:58.161Z,0.00
2019-04-13T03:48:58.096Z,0.00
2019-04-13T03:49:58.067Z,0.00
2019-04-13T03:50:57.980Z,0.00
2019-04-13T03:51:57.927Z,0.00
2019-04-13T03:52:57.868Z,0.00
2019-04-13T03:53:57.808Z,0.00
2019-04-13T03:54:57.772Z,0.00
2019-04-13T03:55:57.690Z,0.00
2019-04-13T03:56:57.636Z,0.00
2019-04-13T03:57:57.575Z,0.00
2019-04-13T03:58:57.519Z,0.00
2019-04-13T03:59:57.483Z,0.00
2019-04-13T04:00:57.409Z,0.00
2019-04-13T04:01:57.347Z,0.00
2019-04-13T04:02:57.285Z,0.00
2019-04-13T04:03:57.226Z,0.00
2019-04-13T04:04:57.192Z,0.00
2019-04-13T04:05:57.135Z,0.00
2019-04-13T04:06:57.055Z,0.00
2019-04-13T04:07:56.997Z,4.00
2019-04-13T04:08:56.937Z,0.00
2019-04-13T04:09:56.905Z,0.00
2019-04-13T04:10:56.823Z,4.00
2019-04-13T04:11:56.764Z,0.00
2019-04-13T04:12:56.700Z,4.00
2019-04-13T04:13:56.648Z,4.00
2019-04-13T04:14:56.613Z,4.00
2019-04-13T04:15:56.535Z,4.00
2019-04-13T04:16:56.475Z,8.00
2019-04-13T04:17:56.417Z,8.00
2019-04-13T04:18:56.359Z,12.00
2019-04-13T04:19:56.326Z,12.00
2019-04-13T04:20:56.245Z,12.00
2019-04-13T04:21:56.181Z,16.00
2019-04-13T04:22:56.129Z,20.00
2019-04-13T04:23:56.088Z,20.00
2019-04-13T04:24:56.033Z,24.00
2019-04-13T04:25:55.952Z,28.00
2019-04-13T04:26:55.900Z,28.00
2019-04-13T04:27:55.833Z,36.00
2019-04-13T04:28:55.780Z,40.00
2019-04-13T04:29:55.738Z,44.00
2019-04-13T04:30:55.662Z,48.00
2019-04-13T04:31:55.600Z,56.00
2019-04-13T04:32:55.544Z,60.00
2019-04-13T04:33:55.488Z,64.00
2019-04-13T04:34:55.496Z,60.00
2019-04-13T04:35:55.369Z,68.00
2019-04-13T04:36:55.310Z,76.00
2019-04-13T04:37:55.256Z,88.00
2019-04-13T04:38:55.196Z,96.00
2019-04-13T04:39:55.159Z,104.00
2019-04-13T04:40:55.081Z,112.00
2019-04-13T04:41:55.027Z,104.00
2019-04-13T04:42:54.963Z,128.00
2019-04-13T04:43:54.910Z,128.00
2019-04-13T04:44:54.871Z,132.00
2019-04-13T04:45:54.787Z,164.00
2019-04-13T04:46:54.735Z,160.00
2019-04-13T04:47:54.673Z,168.00
2019-04-13T04:48:54.614Z,176.00
2019-04-13T04:49:54.583Z,180.00
2019-04-13T04:50:54.501Z,184.00
2019-04-13T04:51:54.443Z,208.00
2019-04-13T04:52:54.384Z,172.00
2019-04-13T04:53:54.320Z,196.00
2019-04-13T04:54:54.293Z,184.00
2019-04-13T04:55:54.243Z,192.00
2019-04-13T04:56:54.157Z,208.00
2019-04-13T04:57:54.096Z,236.00
2019-04-13T04:58:54.035Z,300.00
2019-04-13T04:59:54.020Z,280.00
2019-04-13T05:00:53.921Z,312.00
2019-04-13T05:01:53.861Z,360.00
2019-04-13T05:02:53.803Z,412.00
2019-04-13T05:03:53.751Z,416.00
2019-04-13T05:04:53.711Z,436.00
2019-04-13T05:05:53.632Z,436.00
2019-04-13T05:06:53.572Z,480.00
2019-04-13T05:07:53.512Z,488.00
2019-04-13T05:08:53.458Z,508.00
2019-04-13T05:09:53.423Z,528.00
2019-04-13T05:10:53.343Z,544.00
2019-04-13T05:11:53.297Z,556.00
2019-04-13T05:12:53.224Z,656.00
2019-04-13T05:13:53.163Z,748.00
2019-04-13T05:14:53.109Z,736.00
2019-04-13T05:15:53.073Z,764.00
2019-04-13T05:16:52.990Z,840.00
2019-04-13T05:17:52.934Z,852.00
2019-04-13T05:18:52.879Z,864.00
2019-04-13T05:19:52.824Z,880.00
2019-04-13T05:20:52.786Z,1032.00
2019-04-13T05:21:52.701Z,916.00
2019-04-13T05:22:52.649Z,1104.00
2019-04-13T05:23:52.591Z,1008.00
2019-04-13T05:24:52.531Z,1208.00
2019-04-13T05:25:52.494Z,1256.00
2019-04-13T05:26:52.408Z,1292.00
2019-04-13T05:27:52.357Z,1280.00
2019-04-13T05:28:52.297Z,1404.00
2019-04-13T05:29:52.242Z,1356.00
2019-04-13T05:30:52.206Z,1256.00
2019-04-13T05:31:52.124Z,1380.00
2019-04-13T05:32:52.072Z,1304.00
2019-04-13T05:33:52.013Z,1284.00
2019-04-13T05:34:51.950Z,1244.00
2019-04-13T05:35:51.918Z,1324.00
2019-04-13T05:36:51.837Z,1252.00
2019-04-13T05:37:51.783Z,1244.00
2019-04-13T05:38:51.721Z,1108.00
2019-04-13T05:39:51.660Z,1240.00
2019-04-13T05:40:51.629Z,1372.00
2019-04-13T05:41:51.549Z,1420.00
2019-04-13T05:42:51.499Z,1320.00
2019-04-13T05:43:51.438Z,1552.00
2019-04-13T05:44:51.433Z,1444.00
2019-04-13T05:45:51.341Z,1464.00
2019-04-13T05:46:51.257Z,1500.00
2019-04-13T05:47:51.196Z,1548.00
2019-04-13T05:48:51.142Z,1440.00
2019-04-13T05:49:51.082Z,1304.00
2019-04-13T05:50:51.051Z,1196.00
2019-04-13T05:51:50.969Z,1120.00
2019-04-13T05:52:50.909Z,964.00
2019-04-13T05:53:50.853Z,864.00
2019-04-13T05:54:50.793Z,888.00
2019-04-13T05:55:50.761Z,948.00
2019-04-13T05:56:50.675Z,1044.00
2019-04-13T05:57:50.616Z,1128.00
2019-04-13T05:59:02.462Z,1168.00
2019-04-13T05:59:50.500Z,1208.00
2019-04-13T06:00:50.472Z,1236.00
2019-04-13T06:01:50.390Z,1484.00
2019-04-13T06:02:50.335Z,1636.00
2019-04-13T06:03:52.564Z,1832.00
2019-04-13T06:04:50.217Z,1936.00
2019-04-13T06:05:50.180Z,2044.00
2019-04-13T06:06:59.387Z,2596.00
2019-04-13T06:07:50.038Z,2600.00
2019-04-13T06:08:49.986Z,2712.00
2019-04-13T06:09:49.924Z,2748.00
2019-04-13T06:10:50.094Z,2304.00
2019-04-13T06:11:49.812Z,2652.00
2019-04-13T06:12:53.520Z,2460.00
2019-04-13T06:13:49.694Z,2948.00
2019-04-13T06:14:49.633Z,2144.00
2019-04-13T06:15:49.576Z,2728.00
2019-04-13T06:16:49.542Z,2584.00
2019-04-13T06:17:49.464Z,2340.00
2019-04-13T06:18:51.776Z,2740.00
2019-04-13T06:19:49.342Z,2176.00
2019-04-13T06:20:49.285Z,2592.00
2019-04-13T06:21:49.258Z,2612.00
2019-04-13T06:22:51.986Z,2628.00
2019-04-13T06:23:50.204Z,2348.00
2019-04-13T06:24:51.955Z,1992.00
2019-04-13T06:25:49.000Z,1844.00
2019-04-13T06:26:48.964Z,1788.00
2019-04-13T06:27:48.877Z,1832.00
2019-04-13T06:28:48.821Z,1752.00
2019-04-13T06:29:48.766Z,2536.00
2019-04-13T06:30:48.722Z,2460.00
2019-04-13T06:31:48.675Z,2584.00
2019-04-13T06:32:48.600Z,2488.00
2019-04-13T06:33:48.536Z,3028.00
2019-04-13T06:34:48.477Z,2912.00
2019-04-13T06:35:48.428Z,2304.00
2019-04-13T06:36:48.394Z,3004.00
2019-04-13T06:37:48.929Z,3016.00
2019-04-13T06:38:48.252Z,3248.00
2019-04-13T06:39:48.188Z,3372.00
2019-04-13T06:40:48.133Z,3156.00
2019-04-13T06:41:48.274Z,3808.00
2019-04-13T06:42:50.242Z,4608.00
2019-04-13T06:43:47.962Z,3704.00
2019-04-13T06:44:47.907Z,3260.00
2019-04-13T06:45:48.495Z,3616.00
2019-04-13T06:46:47.809Z,2976.00
2019-04-13T06:47:47.737Z,3088.00
2019-04-13T06:48:47.674Z,3400.00
2019-04-13T06:49:48.140Z,3848.00
2019-04-13T06:50:47.564Z,3668.00
2019-04-13T06:51:47.522Z,3088.00
2019-04-13T06:52:47.445Z,3724.00
2019-04-13T06:53:47.385Z,3168.00
2019-04-13T06:54:47.334Z,4480.00
2019-04-13T06:55:47.270Z,4156.00
2019-04-13T06:56:47.239Z,4152.00
2019-04-13T06:57:47.161Z,3192.00
2019-04-13T06:58:47.101Z,3388.00
2019-04-13T06:59:47.040Z,3632.00
2019-04-13T07:00:47.849Z,3148.00
2019-04-13T07:01:46.950Z,2996.00
2019-04-13T07:02:46.866Z,3836.00
2019-04-13T07:03:46.813Z,3404.00
2019-04-13T07:04:46.752Z,4660.00
2019-04-13T07:05:46.701Z,3816.00
2019-04-13T07:06:48.220Z,4808.00
2019-04-13T07:07:51.217Z,3936.00
2019-04-13T07:08:46.521Z,4288.00
2019-04-13T07:09:46.469Z,3468.00
2019-04-13T07:10:49.744Z,4512.00
2019-04-13T07:11:46.395Z,3768.00
2019-04-13T07:12:46.297Z,2988.00
2019-04-13T07:13:46.236Z,3156.00
2019-04-13T07:14:46.184Z,3788.00
2019-04-13T07:15:46.781Z,4524.00
2019-04-13T07:16:46.095Z,4612.00
2019-04-13T07:17:46.009Z,4860.00
2019-04-13T07:18:45.952Z,5332.00
2019-04-13T07:19:45.892Z,5424.00
2019-04-13T07:20:48.101Z,5108.00
2019-04-13T07:21:45.801Z,5632.00
2019-04-13T07:22:45.726Z,6364.00
2019-04-13T07:23:45.670Z,6316.00
2019-04-13T07:24:45.608Z,6120.00
2019-04-13T07:25:45.557Z,5980.00
2019-04-13T07:26:45.516Z,6068.00
2019-04-13T07:27:45.437Z,6316.00
2019-04-13T07:28:47.633Z,6560.00
2019-04-13T07:29:45.322Z,7576.00
2019-04-13T07:30:45.264Z,8396.00
2019-04-13T07:31:45.234Z,8124.00
2019-04-13T07:32:45.148Z,7416.00
2019-04-13T07:33:49.412Z,8660.00
2019-04-13T07:34:45.039Z,7336.00
2019-04-13T07:35:44.980Z,6768.00
2019-04-13T07:36:44.947Z,7164.00
2019-04-13T07:37:45.392Z,7200.00
2019-04-13T07:38:47.594Z,7736.00
2019-04-13T07:39:48.087Z,6560.00
2019-04-13T07:40:44.698Z,6704.00
2019-04-13T07:41:44.644Z,7896.00
2019-04-13T07:42:44.610Z,5304.00
2019-04-13T07:43:46.007Z,7060.00
2019-04-13T07:44:44.468Z,9740.00
2019-04-13T07:45:44.413Z,8252.00
2019-04-13T07:46:44.353Z,8592.00
2019-04-13T07:47:45.587Z,8540.00
2019-04-13T07:48:44.242Z,8988.00
2019-04-13T07:49:44.204Z,5820.00
2019-04-13T07:50:44.137Z,5508.00
2019-04-13T07:51:44.080Z,5896.00
2019-04-13T07:52:44.046Z,8528.00
2019-04-13T07:53:43.962Z,8512.00
2019-04-13T07:54:45.338Z,7340.00
2019-04-13T07:55:43.849Z,4900.00
2019-04-13T07:56:43.795Z,6504.00
2019-04-13T07:57:43.760Z,5644.00
2019-04-13T07:58:47.129Z,5612.00
2019-04-13T07:59:43.625Z,5528.00
2019-04-13T08:00:45.765Z,4360.00
2019-04-13T08:01:55.733Z,5052.00
2019-04-13T08:02:43.485Z,5056.00
2019-04-13T08:03:43.404Z,5728.00
2019-04-13T08:04:43.341Z,6080.00
2019-04-13T08:05:43.284Z,6348.00
2019-04-13T08:06:43.229Z,7272.00
2019-04-13T08:07:49.509Z,8340.00
2019-04-13T08:08:45.686Z,9184.00
2019-04-13T08:09:43.063Z,8256.00
2019-04-13T08:10:43.013Z,7152.00
2019-04-13T08:11:42.962Z,6920.00
2019-04-13T08:12:42.914Z,7760.00
2019-04-13T08:13:42.839Z,8200.00
2019-04-13T08:14:42.782Z,8480.00
2019-04-13T08:15:42.727Z,7244.00
2019-04-13T08:16:42.673Z,6756.00
2019-04-13T08:17:42.639Z,6560.00
2019-04-13T08:18:42.561Z,6228.00
2019-04-13T08:19:42.523Z,5444.00
2019-04-13T08:20:42.447Z,5664.00
2019-04-13T08:21:42.391Z,6104.00
2019-04-13T08:22:42.356Z,7172.00
2019-04-13T08:23:42.277Z,8548.00
2019-04-13T08:24:42.226Z,9452.00
2019-04-13T08:25:42.175Z,8572.00
2019-04-13T08:26:42.111Z,8040.00
2019-04-13T08:27:42.098Z,6692.00
2019-04-13T08:28:41.998Z,6044.00
2019-04-13T08:29:44.387Z,6500.00
2019-04-13T08:30:41.889Z,6480.00
2019-04-13T08:31:41.829Z,9548.00
2019-04-13T08:32:41.802Z,8672.00
2019-04-13T08:33:41.722Z,6548.00
2019-04-13T08:34:41.660Z,5048.00
2019-04-13T08:35:42.482Z,3992.00
2019-04-13T08:36:41.552Z,4140.00
2019-04-13T08:38:41.442Z,4548.00
2019-04-13T08:39:41.381Z,4660.00
2019-04-13T08:40:46.329Z,4576.00
2019-04-13T08:41:03.649Z,4572.00
2019-04-13T08:41:41.274Z,6248.00
2019-04-13T08:42:41.244Z,7036.00
2019-04-13T08:43:41.159Z,7532.00
2019-04-13T08:44:41.107Z,7536.00
2019-04-13T08:45:43.904Z,7596.00
2019-04-13T08:46:40.994Z,7956.00
2019-04-13T08:47:40.963Z,8232.00
2019-04-13T08:48:40.884Z,9688.00
2019-04-13T08:49:40.828Z,10376.00
2019-04-13T08:50:40.772Z,11964.00
2019-04-13T08:51:41.255Z,10084.00
2019-04-13T08:52:40.698Z,9248.00
2019-04-13T08:53:40.605Z,8356.00
2019-04-13T08:54:40.543Z,8224.00
2019-04-13T08:55:40.491Z,8500.00
2019-04-13T08:56:40.440Z,8224.00
2019-04-13T08:57:40.382Z,9464.00
2019-04-13T08:58:41.169Z,9104.00
2019-04-13T08:59:40.270Z,8084.00
2019-04-13T09:00:40.214Z,7856.00
2019-04-13T09:01:40.166Z,7408.00
2019-04-13T09:02:40.108Z,8964.00
2019-04-13T09:03:40.076Z,8292.00
2019-04-13T09:04:39.996Z,8404.00
2019-04-13T09:05:39.941Z,7164.00
2019-04-13T09:06:39.886Z,6236.00
2019-04-13T09:07:39.943Z,7496.00
2019-04-13T09:08:39.794Z,7952.00
2019-04-13T09:09:41.338Z,9116.00
2019-04-13T09:10:39.681Z,9080.00
2019-04-13T09:11:40.821Z,7504.00
2019-04-13T09:12:39.563Z,6520.00
2019-04-13T09:13:39.890Z,6380.00
2019-04-13T09:14:40.416Z,5680.00
2019-04-13T09:15:43.385Z,6612.00
2019-04-13T09:16:39.523Z,8772.00
2019-04-13T09:17:39.825Z,8452.00
2019-04-13T09:18:40.011Z,7528.00
2019-04-13T09:19:41.569Z,7576.00
2019-04-13T09:20:39.959Z,8004.00
2019-04-13T09:21:41.985Z,8364.00
2019-04-13T09:22:39.863Z,8736.00
2019-04-13T09:23:44.213Z,9696.00
2019-04-13T09:24:38.893Z,10196.00
2019-04-13T09:25:38.848Z,10832.00
2019-04-13T09:26:38.790Z,11484.00
2019-04-13T09:27:40.892Z,11512.00
2019-04-13T09:28:43.092Z,11216.00
2019-04-13T09:29:38.619Z,10924.00
2019-04-13T09:30:38.569Z,10460.00
2019-04-13T09:31:38.513Z,8388.00
2019-04-13T09:32:38.462Z,9168.00
2019-04-13T09:33:38.430Z,10004.00
2019-04-13T09:34:38.354Z,10612.00
2019-04-13T09:35:38.295Z,10028.00
2019-04-13T09:36:38.244Z,7564.00
2019-04-13T09:37:38.189Z,5600.00
2019-04-13T09:38:42.662Z,5456.00
2019-04-13T09:39:38.080Z,5292.00
2019-04-13T09:40:38.028Z,5304.00
2019-04-13T09:41:37.971Z,6328.00
2019-04-13T09:42:37.918Z,7548.00
2019-04-13T09:43:37.889Z,8368.00
2019-04-13T09:44:37.809Z,7856.00
2019-04-13T09:45:37.753Z,7012.00
2019-04-13T09:46:38.246Z,6204.00
2019-04-13T09:47:42.006Z,6020.00
2019-04-13T09:48:37.611Z,6560.00
2019-04-13T09:49:37.546Z,7276.00
2019-04-13T09:50:37.550Z,8000.00
2019-04-13T09:51:39.681Z,8300.00
2019-04-13T09:52:37.378Z,8116.00
2019-04-13T09:53:37.343Z,8328.00
2019-04-13T09:54:37.267Z,8060.00
2019-04-13T09:55:37.208Z,7932.00
2019-04-13T09:56:37.830Z,7096.00
2019-04-13T09:57:37.101Z,7420.00
2019-04-13T09:58:37.067Z,8112.00
2019-04-13T09:59:36.988Z,7704.00
2019-04-13T10:00:36.927Z,7016.00
2019-04-13T10:01:36.871Z,8088.00
2019-04-13T10:02:36.820Z,8696.00
2019-04-13T10:03:39.273Z,8576.00
2019-04-13T10:04:36.714Z,9208.00
2019-04-13T10:05:36.658Z,10032.00
2019-04-13T10:06:36.602Z,10360.00
2019-04-13T10:07:36.546Z,10132.00
2019-04-13T10:08:36.515Z,10088.00
2019-04-13T10:09:36.436Z,10520.00
2019-04-13T10:10:36.501Z,11160.00
2019-04-13T10:11:36.327Z,11088.00
2019-04-13T10:12:36.274Z,10356.00
2019-04-13T10:13:36.239Z,10128.00
2019-04-13T10:14:36.880Z,10680.00
2019-04-13T10:15:36.104Z,11300.00
2019-04-13T10:16:36.052Z,12040.00
2019-04-13T10:17:35.993Z,12116.00
2019-04-13T10:18:35.972Z,11808.00
2019-04-13T10:19:35.885Z,11200.00
2019-04-13T10:20:35.835Z,11108.00
2019-04-13T10:21:35.779Z,11356.00
2019-04-13T10:22:35.730Z,10888.00
2019-04-13T10:23:35.664Z,10208.00
2019-04-13T10:24:35.641Z,9252.00
2019-04-13T10:25:38.167Z,7312.00
2019-04-13T10:26:35.506Z,4972.00
2019-04-13T10:27:35.451Z,5568.00
2019-04-13T10:28:36.240Z,7392.00
2019-04-13T10:29:35.364Z,7452.00
2019-04-13T10:30:35.285Z,7740.00
2019-04-13T10:31:35.229Z,8344.00
2019-04-13T10:32:35.175Z,8684.00
2019-04-13T10:33:35.124Z,8960.00
2019-04-13T10:34:35.091Z,9812.00
2019-04-13T10:35:35.013Z,9220.00
2019-04-13T10:36:34.958Z,8784.00
2019-04-13T10:37:34.900Z,8692.00
2019-04-13T10:38:34.851Z,8764.00
2019-04-13T10:39:34.816Z,8760.00
2019-04-13T10:40:34.738Z,9736.00
2019-04-13T10:41:34.684Z,10696.00
2019-04-13T10:42:34.632Z,10064.00
2019-04-13T10:43:34.575Z,8308.00
2019-04-13T10:44:34.548Z,7368.00
2019-04-13T10:45:34.508Z,6552.00
2019-04-13T10:46:34.413Z,7268.00
2019-04-13T10:47:34.355Z,8024.00
2019-04-13T10:48:34.295Z,8180.00
2019-04-13T10:49:34.658Z,7440.00
2019-04-13T10:50:34.322Z,7292.00
2019-04-13T10:51:34.133Z,6636.00
2019-04-13T10:52:34.082Z,6280.00
2019-04-13T10:53:34.021Z,7192.00
2019-04-13T10:54:33.991Z,7116.00
2019-04-13T10:55:33.913Z,6844.00
2019-04-13T10:56:33.862Z,6628.00
2019-04-13T10:57:33.820Z,6276.00
2019-04-13T10:58:33.750Z,5188.00
2019-04-13T10:59:33.714Z,5560.00
2019-04-13T11:00:33.635Z,5992.00
2019-04-13T11:01:33.584Z,6264.00
2019-04-13T11:02:33.528Z,6248.00
2019-04-13T11:03:33.478Z,4784.00
2019-04-13T11:04:54.404Z,4344.00
2019-04-13T11:05:33.352Z,2944.00
2019-04-13T11:06:33.297Z,2496.00
2019-04-13T11:07:34.855Z,2232.00
2019-04-13T11:08:33.261Z,2440.00
2019-04-13T11:09:33.166Z,2264.00
2019-04-13T11:10:34.862Z,2484.00
2019-04-13T11:11:33.030Z,2892.00
2019-04-13T11:12:32.972Z,2840.00
2019-04-13T11:13:32.927Z,2856.00
2019-04-13T11:14:32.879Z,2976.00
2019-04-13T11:15:32.804Z,3416.00
2019-04-13T11:16:32.747Z,4340.00
2019-04-13T11:17:32.693Z,5008.00
2019-04-13T11:18:36.776Z,5916.00
2019-04-13T11:19:35.293Z,7120.00
2019-04-13T11:20:32.525Z,8216.00
2019-04-13T11:21:32.467Z,10072.00
2019-04-13T11:22:32.408Z,10668.00
2019-04-13T11:23:36.499Z,10004.00
2019-04-13T11:24:32.323Z,9352.00
2019-04-13T11:25:32.243Z,9132.00
2019-04-13T11:26:32.187Z,9244.00
2019-04-13T11:27:32.127Z,9396.00
2019-04-13T11:28:32.068Z,9372.00
2019-04-13T11:29:32.038Z,9036.00
2019-04-13T11:30:33.776Z,8928.00
2019-04-13T11:31:31.902Z,8708.00
2019-04-13T11:32:31.837Z,8560.00
2019-04-13T11:33:31.787Z,9008.00
2019-04-13T11:34:31.760Z,9460.00
2019-04-13T11:35:35.458Z,9292.00
2019-04-13T11:36:31.620Z,9364.00
2019-04-13T11:37:32.386Z,9852.00
2019-04-13T11:38:31.507Z,10244.00
2019-04-13T11:39:34.209Z,10448.00
2019-04-13T11:40:31.396Z,11048.00
2019-04-13T11:41:31.340Z,12040.00
2019-04-13T11:42:31.285Z,11724.00
2019-04-13T11:43:31.224Z,10196.00
2019-04-13T11:44:31.255Z,6836.00
2019-04-13T11:45:31.142Z,4616.00
2019-04-13T11:46:31.086Z,4416.00
2019-04-13T11:47:31.003Z,3444.00
2019-04-13T11:48:30.985Z,3508.00
2019-04-13T11:49:30.892Z,5608.00
2019-04-13T11:50:30.862Z,8228.00
2019-04-13T11:51:32.212Z,9476.00
2019-04-13T11:52:30.728Z,9488.00
2019-04-13T11:53:30.671Z,9512.00
2019-04-13T11:54:30.616Z,8972.00
2019-04-13T11:55:34.018Z,9572.00
2019-04-13T11:56:30.510Z,10244.00
2019-04-13T11:57:30.455Z,10592.00
2019-04-13T11:58:30.395Z,10780.00
2019-04-13T11:59:30.341Z,10108.00
2019-04-13T12:00:30.307Z,8988.00
2019-04-13T12:01:30.228Z,7864.00
2019-04-13T12:02:30.173Z,7076.00
2019-04-13T12:03:30.113Z,5188.00
2019-04-13T12:04:30.347Z,4280.00
2019-04-13T12:05:31.999Z,2640.00
2019-04-13T12:06:29.948Z,2144.00
2019-04-13T12:07:29.902Z,2144.00
2019-04-13T12:08:29.837Z,2476.00
2019-04-13T12:09:34.177Z,2272.00
2019-04-13T12:10:29.750Z,2452.00
2019-04-13T12:11:29.670Z,3140.00
2019-04-13T12:12:29.611Z,4632.00
2019-04-13T12:13:31.750Z,5480.00
2019-04-13T12:14:31.909Z,5716.00
2019-04-13T12:15:29.472Z,5456.00
2019-04-13T12:16:29.393Z,5700.00
2019-04-13T12:17:29.628Z,8396.00
2019-04-13T12:18:29.287Z,9156.00
2019-04-13T12:19:29.228Z,9208.00
2019-04-13T12:20:29.200Z,11672.00
2019-04-13T12:21:29.114Z,11676.00
2019-04-13T12:22:29.053Z,10296.00
2019-04-13T12:23:29.006Z,9920.00
2019-04-13T12:24:28.949Z,9092.00
2019-04-13T12:25:28.916Z,9320.00
2019-04-13T12:26:28.836Z,9708.00
2019-04-13T12:27:31.159Z,10076.00
2019-04-13T12:28:28.729Z,10060.00
2019-04-13T12:29:28.670Z,9588.00